Time;durP1;ratioP1;P1;durP2;ratioP2;P2;SDS_P1;SDS_P2;PMS_P1;PMS_P2;Temp;Humidity;BMP_temperature;BMP_pressure;BME280_temperature;BME280_humidity;BME280_pressure;Samples;Min_cycle;Max_cycle;Signal;HPM_P1;HPM_P2
2022/03/10 00:02:14;;;;;;;14.00;11.13;;;8.60;74.00;;;;;;5004186;28;20057;-82
2022/03/10 00:04:39;;;;;;;14.38;11.20;;;8.60;74.00;;;;;;4999796;28;20034;-82
2022/03/10 00:07:06;;;;;;;13.52;10.38;;;8.60;74.10;;;;;;5000435;28;20378;-81
2022/03/10 00:09:32;;;;;;;15.60;10.95;;;8.60;74.20;;;;;;5007429;28;20033;-82
2022/03/10 00:11:59;;;;;;;15.10;11.68;;;8.50;74.10;;;;;;4994028;28;20091;-82
2022/03/10 00:14:25;;;;;;;16.02;11.02;;;8.50;74.10;;;;;;5000938;28;20035;-82
2022/03/10 00:16:51;;;;;;;15.30;11.10;;;8.50;74.10;;;;;;4983368;28;20037;-82
2022/03/10 00:19:17;;;;;;;15.27;11.27;;;8.40;74.10;;;;;;4992987;28;20049;-82
2022/03/10 00:21:44;;;;;;;14.75;11.07;;;8.40;74.10;;;;;;5015792;28;20037;-82
2022/03/10 00:24:10;;;;;;;15.48;11.50;;;8.40;74.10;;;;;;5016524;28;20029;-82
2022/03/10 00:26:39;;;;;;;13.43;10.60;;;8.40;74.10;;;;;;4999471;28;20030;-80
2022/03/10 00:29:05;;;;;;;14.60;10.93;;;8.30;74.00;;;;;;4992688;28;20044;-81
2022/03/10 00:31:31;;;;;;;16.08;10.80;;;8.30;74.10;;;;;;5000214;28;20125;-83
2022/03/10 00:33:57;;;;;;;14.43;10.75;;;8.30;74.10;;;;;;4991606;28;20181;-82
2022/03/10 00:36:23;;;;;;;13.45;10.45;;;8.20;74.00;;;;;;4999159;28;20132;-82
2022/03/10 00:38:49;;;;;;;13.25;10.25;;;8.20;74.10;;;;;;5015513;28;20040;-82
2022/03/10 00:41:15;;;;;;;16.30;12.50;;;8.20;74.10;;;;;;5011343;28;20028;-81
2022/03/10 00:43:41;;;;;;;17.38;11.55;;;8.20;74.10;;;;;;5000700;28;20041;-80
2022/03/10 00:46:07;;;;;;;15.00;10.75;;;8.10;74.10;;;;;;5000826;28;20026;-82
2022/03/10 00:48:33;;;;;;;15.85;11.63;;;8.10;74.10;;;;;;5014325;28;20478;-81
2022/03/10 00:50:59;;;;;;;14.48;11.02;;;8.10;74.10;;;;;;5000678;28;20033;-82
2022/03/10 00:53:24;;;;;;;14.65;10.75;;;8.10;74.10;;;;;;4998650;28;20065;-82
2022/03/10 00:55:50;;;;;;;14.52;11.02;;;8.00;74.10;;;;;;4991279;28;20534;-82
2022/03/10 00:58:16;;;;;;;15.07;10.90;;;8.00;74.10;;;;;;4992137;28;20378;-82
2022/03/10 01:00:42;;;;;;;13.18;10.13;;;8.00;74.10;;;;;;4968746;28;20091;-82
2022/03/10 01:03:08;;;;;;;13.70;9.82;;;7.90;74.10;;;;;;4998820;28;20099;-81
2022/03/10 01:05:34;;;;;;;14.55;10.75;;;7.90;74.30;;;;;;4981335;28;20041;-82
2022/03/10 01:08:00;;;;;;;14.02;10.57;;;7.90;74.10;;;;;;4997306;28;20029;-82
2022/03/10 01:10:27;;;;;;;13.55;10.43;;;7.90;74.10;;;;;;5006958;28;20463;-83
2022/03/10 01:12:53;;;;;;;14.18;10.18;;;7.80;74.00;;;;;;4999348;28;20084;-82
2022/03/10 01:15:22;;;;;;;12.85;9.65;;;7.80;74.00;;;;;;5006296;28;20041;-83
2022/03/10 01:17:49;;;;;;;13.55;10.75;;;7.80;74.10;;;;;;5023576;28;20029;-82
2022/03/10 01:20:16;;;;;;;13.00;9.63;;;7.80;74.00;;;;;;4993621;28;20057;-81
2022/03/10 01:22:41;;;;;;;14.10;10.23;;;7.70;74.00;;;;;;4998326;28;20697;-81
2022/03/10 01:25:08;;;;;;;13.30;10.30;;;7.70;74.00;;;;;;4997540;28;20029;-81
2022/03/10 01:27:35;;;;;;;12.20;9.30;;;7.70;74.00;;;;;;4992720;28;20125;-83
2022/03/10 01:30:01;;;;;;;15.35;10.52;;;7.60;73.90;;;;;;4997689;28;20087;-82
2022/03/10 01:32:27;;;;;;;13.65;10.45;;;7.60;73.90;;;;;;5028897;28;20120;-81
2022/03/10 01:34:53;;;;;;;12.60;9.43;;;7.60;74.00;;;;;;4990489;28;20597;-82
2022/03/10 01:37:19;;;;;;;12.18;9.73;;;7.60;74.00;;;;;;4995157;28;20118;-82
2022/03/10 01:39:45;;;;;;;12.60;9.27;;;7.50;74.00;;;;;;5008524;28;20509;-81
2022/03/10 01:42:11;;;;;;;11.48;8.43;;;7.50;74.00;;;;;;5012885;28;20041;-81
2022/03/10 01:44:37;;;;;;;11.88;8.90;;;7.50;74.10;;;;;;4996984;28;20033;-82
2022/03/10 01:47:05;;;;;;;13.43;9.68;;;7.50;74.10;;;;;;4995933;28;20117;-81
2022/03/10 01:49:32;;;;;;;11.73;9.13;;;7.40;74.10;;;;;;5004118;28;20032;-80
2022/03/10 01:51:59;;;;;;;12.75;9.75;;;7.40;74.10;;;;;;4979745;28;20092;-81
2022/03/10 01:54:25;;;;;;;11.57;9.05;;;7.40;74.20;;;;;;4996845;28;20501;-82
2022/03/10 01:56:52;;;;;;;11.43;9.23;;;7.40;74.20;;;;;;4992658;28;20079;-82
2022/03/10 01:59:19;;;;;;;11.20;8.57;;;7.30;74.20;;;;;;5014926;28;20844;-82
2022/03/10 02:01:45;;;;;;;11.43;9.10;;;7.30;74.30;;;;;;4995820;28;20108;-82
2022/03/10 02:04:11;;;;;;;11.85;8.30;;;7.30;74.20;;;;;;4982007;28;20036;-81
2022/03/10 02:06:37;;;;;;;11.25;8.85;;;7.20;74.20;;;;;;4998351;28;20048;-82
2022/03/10 02:11:49;;;;;;;11.57;8.45;;;7.20;74.30;;;;;;5012494;28;20042;-82
2022/03/10 02:19:45;;;;;;;11.50;8.23;;;7.10;74.20;;;;;;5000485;28;20038;-82
2022/03/10 02:22:14;;;;;;;10.93;8.45;;;7.10;74.20;;;;;;4997363;28;20049;-81
2022/03/10 02:24:42;;;;;;;10.43;8.15;;;7.10;74.30;;;;;;5009577;28;20087;-83
2022/03/10 02:27:21;;;;;;;11.45;8.40;;;7.00;74.20;;;;;;4990244;28;20025;-82
2022/03/10 02:29:49;;;;;;;11.38;8.15;;;7.00;74.30;;;;;;4998297;28;20473;-82
2022/03/10 02:32:16;;;;;;;12.63;8.80;;;7.00;74.20;;;;;;4991544;28;20038;-81
2022/03/10 02:34:43;;;;;;;11.90;8.80;;;7.00;74.20;;;;;;4992618;28;20242;-83
2022/03/10 02:37:09;;;;;;;10.32;7.95;;;7.00;74.10;;;;;;4995773;28;20030;-81
2022/03/10 02:39:35;;;;;;;10.80;7.82;;;6.90;74.10;;;;;;4994732;28;20064;-82
2022/03/10 02:42:02;;;;;;;11.43;8.45;;;6.90;74.10;;;;;;4995095;28;20323;-82
2022/03/10 02:44:28;;;;;;;10.15;7.78;;;6.90;74.10;;;;;;4994461;28;20097;-81
2022/03/10 02:46:54;;;;;;;12.23;8.60;;;6.90;74.10;;;;;;4997481;28;20659;-81
2022/03/10 02:49:20;;;;;;;11.65;8.48;;;6.80;74.00;;;;;;4991560;28;20034;-81
2022/03/10 02:51:46;;;;;;;10.38;7.78;;;6.80;74.00;;;;;;5002246;28;20029;-81
2022/03/10 02:54:12;;;;;;;10.32;8.02;;;6.80;74.00;;;;;;5027765;28;20662;-81
2022/03/10 02:56:37;;;;;;;11.63;8.15;;;6.80;74.00;;;;;;4965634;28;20037;-82
2022/03/10 02:59:04;;;;;;;10.25;7.80;;;6.70;73.90;;;;;;5009437;28;20061;-80
2022/03/10 03:01:30;;;;;;;11.60;8.68;;;6.70;73.90;;;;;;4980717;28;20099;-83
2022/03/10 03:03:56;;;;;;;10.73;8.40;;;6.70;74.00;;;;;;4995536;28;20044;-82
2022/03/10 03:06:22;;;;;;;10.48;7.57;;;6.70;74.00;;;;;;4982059;28;20152;-82
2022/03/10 03:08:49;;;;;;;10.98;8.02;;;6.60;73.90;;;;;;4997515;28;20045;-82
2022/03/10 03:11:15;;;;;;;10.55;7.95;;;6.60;73.90;;;;;;4997803;28;20045;-82
2022/03/10 03:13:41;;;;;;;11.35;8.60;;;6.60;73.90;;;;;;5028849;28;20516;-83
2022/03/10 03:16:07;;;;;;;11.60;7.75;;;6.60;73.90;;;;;;4972020;28;20038;-82
2022/03/10 03:18:32;;;;;;;10.48;7.88;;;6.60;73.90;;;;;;4990152;28;20080;-82
2022/03/10 03:20:59;;;;;;;10.32;7.35;;;6.50;73.90;;;;;;4980579;28;20037;-80
2022/03/10 03:23:24;;;;;;;10.20;8.20;;;6.50;73.80;;;;;;4994177;28;20042;-80
2022/03/10 03:25:51;;;;;;;10.18;7.43;;;6.50;73.80;;;;;;4985790;28;20129;-80
2022/03/10 03:28:23;;;;;;;10.60;7.43;;;6.50;73.90;;;;;;5014173;28;20037;-82
2022/03/10 03:30:50;;;;;;;10.57;7.38;;;6.50;73.90;;;;;;5019879;28;20037;-81
2022/03/10 03:33:16;;;;;;;10.75;8.02;;;6.40;73.80;;;;;;4992853;28;20382;-82
2022/03/10 03:35:43;;;;;;;10.35;7.90;;;6.40;73.80;;;;;;5010165;28;20029;-82
2022/03/10 03:38:08;;;;;;;10.02;7.30;;;6.40;73.90;;;;;;4974742;28;20029;-82
2022/03/10 03:40:34;;;;;;;10.32;7.65;;;6.40;73.90;;;;;;5009932;28;20087;-82
2022/03/10 03:43:00;;;;;;;10.32;7.78;;;6.30;73.80;;;;;;4998277;28;20032;-82
2022/03/10 03:45:27;;;;;;;9.38;7.07;;;6.30;73.80;;;;;;5006821;28;20041;-82
2022/03/10 03:47:53;;;;;;;9.75;7.30;;;6.30;73.90;;;;;;5011702;28;20095;-82
2022/03/10 03:50:19;;;;;;;9.85;7.40;;;6.30;73.90;;;;;;5001795;28;20037;-82
2022/03/10 03:52:45;;;;;;;9.43;7.18;;;6.30;73.90;;;;;;5000487;28;20025;-82
2022/03/10 03:55:11;;;;;;;10.55;7.78;;;6.30;73.90;;;;;;4993188;28;20049;-82
2022/03/10 03:57:37;;;;;;;10.52;7.63;;;6.30;73.90;;;;;;5001823;28;20018;-82
2022/03/10 04:00:07;;;;;;;10.43;7.85;;;6.20;73.80;;;;;;4998428;28;20032;-82
2022/03/10 04:02:35;;;;;;;9.57;7.38;;;6.20;73.90;;;;;;5032145;28;20044;-82
2022/03/10 04:05:02;;;;;;;10.30;8.00;;;6.20;73.90;;;;;;4987339;28;20033;-81
2022/03/10 04:07:27;;;;;;;9.95;7.90;;;6.20;73.90;;;;;;5019350;28;20034;-82
2022/03/10 04:09:53;;;;;;;11.38;7.78;;;6.20;73.90;;;;;;5015357;28;20048;-83
2022/03/10 04:12:19;;;;;;;10.73;7.82;;;6.10;73.80;;;;;;5017350;28;20036;-82
2022/03/10 04:14:45;;;;;;;10.73;7.95;;;6.10;73.90;;;;;;4999310;28;20041;-82
2022/03/10 04:17:11;;;;;;;11.13;8.13;;;6.10;73.90;;;;;;4968222;28;20091;-82
2022/03/10 04:19:36;;;;;;;11.07;7.72;;;6.10;73.80;;;;;;5000739;28;20124;-82
2022/03/10 04:22:03;;;;;;;10.75;7.63;;;6.10;73.90;;;;;;4999316;28;20026;-82
2022/03/10 04:24:29;;;;;;;10.10;7.53;;;6.00;73.80;;;;;;4999735;28;20053;-82
2022/03/10 04:26:55;;;;;;;11.48;7.90;;;6.00;73.80;;;;;;4999934;28;20037;-82
2022/03/10 04:29:21;;;;;;;11.23;8.57;;;6.00;73.80;;;;;;5001772;28;20037;-81
2022/03/10 04:31:47;;;;;;;11.40;8.05;;;6.00;73.90;;;;;;5017047;28;20042;-82
2022/03/10 04:34:13;;;;;;;10.77;8.40;;;6.00;73.80;;;;;;4984324;28;20033;-82
2022/03/10 04:36:39;;;;;;;11.55;7.97;;;5.90;73.80;;;;;;4997558;28;20037;-82
2022/03/10 04:39:05;;;;;;;12.60;8.88;;;5.90;73.80;;;;;;4983825;28;20125;-82
2022/03/10 04:41:31;;;;;;;12.40;9.15;;;5.90;73.80;;;;;;4998587;28;20427;-82
2022/03/10 04:43:57;;;;;;;11.98;8.70;;;5.90;73.80;;;;;;5005343;28;20026;-82
2022/03/10 04:46:23;;;;;;;12.68;8.35;;;5.90;73.80;;;;;;4991412;28;20172;-82
2022/03/10 04:48:49;;;;;;;13.52;9.00;;;5.80;73.80;;;;;;4994980;28;20065;-82
2022/03/10 04:51:15;;;;;;;12.25;9.10;;;5.80;73.80;;;;;;4999301;28;20032;-83
2022/03/10 04:53:41;;;;;;;11.88;8.75;;;5.80;73.80;;;;;;4996763;28;20038;-81
2022/03/10 04:56:07;;;;;;;12.85;8.80;;;5.80;73.80;;;;;;5012170;28;20378;-82
2022/03/10 04:58:33;;;;;;;11.88;8.95;;;5.80;73.80;;;;;;5000279;28;20044;-82
2022/03/10 05:00:59;;;;;;;12.25;8.65;;;5.70;73.80;;;;;;4999928;28;20060;-83
2022/03/10 05:03:24;;;;;;;12.77;9.52;;;5.70;73.80;;;;;;4981110;28;20168;-82
2022/03/10 05:05:52;;;;;;;11.23;8.45;;;5.70;73.80;;;;;;4983960;28;20577;-82
2022/03/10 05:08:17;;;;;;;13.13;9.10;;;5.70;73.80;;;;;;4998749;28;20121;-82
2022/03/10 05:10:43;;;;;;;12.07;8.82;;;5.70;73.80;;;;;;4983611;28;20033;-82
2022/03/10 05:13:09;;;;;;;12.43;8.65;;;5.70;73.80;;;;;;5015193;28;20040;-82
2022/03/10 05:15:35;;;;;;;11.60;8.82;;;5.60;73.80;;;;;;4995320;28;20036;-82
2022/03/10 05:18:04;;;;;;;12.75;8.35;;;5.60;73.80;;;;;;4984451;28;20033;-81
2022/03/10 05:20:30;;;;;;;13.57;9.13;;;5.60;73.80;;;;;;5007752;28;20025;-82
2022/03/10 05:22:59;;;;;;;12.40;8.73;;;5.60;73.80;;;;;;4979297;28;20057;-83
2022/03/10 05:25:31;;;;;;;14.75;9.45;;;5.50;74.50;;;;;;5004572;28;20356;-79
2022/03/10 05:27:57;;;;;;;12.40;8.40;;;5.50;73.80;;;;;;5009506;28;20025;-79
2022/03/10 05:30:22;;;;;;;11.48;8.15;;;5.50;73.80;;;;;;4995759;28;20499;-80
2022/03/10 05:32:49;;;;;;;12.10;8.70;;;5.50;73.80;;;;;;4994014;28;20045;-80
2022/03/10 05:35:16;;;;;;;12.23;8.48;;;5.50;73.80;;;;;;4982577;28;20054;-80
2022/03/10 05:37:44;;;;;;;11.68;8.88;;;5.50;73.90;;;;;;4994932;28;20044;-80
2022/03/10 05:40:16;;;;;;;11.63;8.52;;;5.40;73.80;;;;;;5008024;28;20083;-80
2022/03/10 05:42:43;;;;;;;11.27;8.73;;;5.40;73.80;;;;;;5004541;28;20021;-79
2022/03/10 05:45:10;;;;;;;12.35;8.77;;;5.50;73.90;;;;;;5009604;28;20345;-79
2022/03/10 05:47:38;;;;;;;12.32;9.20;;;5.40;73.90;;;;;;4992192;28;20498;-80
2022/03/10 05:50:05;;;;;;;12.60;8.65;;;5.40;73.90;;;;;;5010042;28;20037;-80
2022/03/10 05:52:31;;;;;;;11.73;8.20;;;5.40;73.90;;;;;;5004873;28;20034;-80
2022/03/10 05:54:58;;;;;;;11.23;8.27;;;5.30;73.80;;;;;;4993952;28;20041;-80
2022/03/10 05:57:24;;;;;;;11.32;8.90;;;5.30;73.80;;;;;;5009086;28;20066;-79
2022/03/10 05:59:49;;;;;;;10.82;8.18;;;5.30;73.80;;;;;;5010188;28;20080;-79
2022/03/10 06:02:16;;;;;;;10.70;7.85;;;5.30;73.90;;;;;;5009000;28;20072;-80
2022/03/10 06:04:43;;;;;;;10.63;8.02;;;5.30;73.90;;;;;;5002755;28;20026;-78
2022/03/10 06:07:09;;;;;;;11.25;8.27;;;5.30;73.90;;;;;;5009428;28;20124;-79
2022/03/10 06:09:34;;;;;;;12.68;8.63;;;5.30;73.90;;;;;;4975709;28;20165;-80
2022/03/10 06:12:01;;;;;;;11.95;8.23;;;5.30;73.90;;;;;;4977167;28;20375;-79
2022/03/10 06:14:27;;;;;;;11.98;8.60;;;5.20;73.90;;;;;;4969825;28;20026;-79
2022/03/10 06:16:53;;;;;;;10.85;8.13;;;5.20;73.80;;;;;;4993269;28;20033;-81
2022/03/10 06:19:19;;;;;;;13.18;9.20;;;5.20;73.90;;;;;;5010418;28;20038;-78
2022/03/10 06:21:46;;;;;;;11.18;7.82;;;5.20;73.90;;;;;;4995990;28;20082;-79
2022/03/10 06:24:12;;;;;;;11.88;8.75;;;5.20;73.90;;;;;;4992179;28;20046;-78
2022/03/10 06:26:38;;;;;;;11.27;8.65;;;5.20;73.90;;;;;;5010526;28;20149;-79
2022/03/10 06:29:05;;;;;;;10.93;7.82;;;5.20;73.90;;;;;;4994330;28;20046;-79
2022/03/10 06:31:32;;;;;;;10.68;7.47;;;5.10;73.90;;;;;;5011033;28;20029;-78
2022/03/10 06:33:58;;;;;;;10.75;7.50;;;5.10;73.90;;;;;;4992992;28;20140;-79
2022/03/10 06:36:25;;;;;;;10.43;7.80;;;5.10;73.90;;;;;;4963268;28;20120;-79
2022/03/10 06:38:52;;;;;;;10.38;7.95;;;5.10;73.90;;;;;;5002838;28;20038;-78
2022/03/10 06:41:19;;;;;;;12.55;8.55;;;5.00;73.90;;;;;;5001711;28;20037;-78
2022/03/10 06:43:44;;;;;;;10.48;8.18;;;5.10;74.00;;;;;;5010518;28;20065;-79
2022/03/10 06:46:10;;;;;;;11.35;8.38;;;5.10;73.90;;;;;;5009723;28;20049;-78
2022/03/10 06:48:36;;;;;;;9.55;7.88;;;5.00;73.90;;;;;;4993966;28;20482;-78
2022/03/10 06:51:03;;;;;;;10.57;7.38;;;5.00;73.90;;;;;;4990220;28;20157;-79
2022/03/10 06:53:28;;;;;;;12.32;8.65;;;5.00;74.00;;;;;;5009515;28;20030;-78
2022/03/10 06:55:54;;;;;;;10.10;7.68;;;5.00;73.90;;;;;;4990366;28;20028;-78
2022/03/10 06:58:20;;;;;;;11.88;8.13;;;5.00;74.00;;;;;;4993113;28;20022;-79
2022/03/10 07:00:46;;;;;;;11.30;8.35;;;5.00;74.00;;;;;;5009365;28;20030;-78
2022/03/10 07:03:11;;;;;;;10.77;7.55;;;5.00;74.00;;;;;;4993311;28;20025;-79
2022/03/10 07:05:38;;;;;;;10.98;8.02;;;5.00;74.00;;;;;;4993370;28;20037;-79
2022/03/10 07:08:04;;;;;;;11.30;8.27;;;5.00;74.00;;;;;;4993463;28;20681;-79
2022/03/10 07:10:30;;;;;;;11.32;8.32;;;4.90;74.00;;;;;;4995912;28;20061;-79
2022/03/10 07:12:55;;;;;;;11.88;8.63;;;4.90;74.00;;;;;;4997282;28;20022;-78
2022/03/10 07:15:22;;;;;;;10.70;8.05;;;4.90;74.00;;;;;;4997087;28;20437;-79
2022/03/10 07:17:48;;;;;;;10.30;7.60;;;4.90;74.00;;;;;;5011184;28;20117;-78
2022/03/10 07:20:14;;;;;;;11.45;8.27;;;4.90;74.10;;;;;;5007582;28;20121;-78
2022/03/10 07:22:40;;;;;;;11.73;8.02;;;4.90;74.10;;;;;;5008554;28;20050;-78
2022/03/10 07:25:09;;;;;;;12.70;7.88;;;4.90;74.10;;;;;;4994032;28;20121;-80
2022/03/10 07:27:35;;;;;;;12.02;8.00;;;4.90;74.10;;;;;;4993887;28;20030;-78
2022/03/10 07:30:02;;;;;;;10.80;7.75;;;4.90;74.10;;;;;;4961379;28;20100;-80
2022/03/10 07:32:28;;;;;;;11.13;7.38;;;4.90;74.10;;;;;;4977373;28;20018;-77
2022/03/10 07:34:55;;;;;;;11.07;8.10;;;4.90;74.20;;;;;;4993880;28;20054;-78
2022/03/10 07:37:20;;;;;;;10.98;7.95;;;4.90;74.10;;;;;;4978013;28;20087;-80
2022/03/10 07:39:46;;;;;;;11.52;7.50;;;4.90;74.20;;;;;;4974857;28;20050;-78
2022/03/10 07:42:12;;;;;;;11.02;8.07;;;4.90;74.20;;;;;;4977949;28;20109;-78
2022/03/10 07:44:39;;;;;;;11.20;7.40;;;4.90;74.20;;;;;;4993586;28;20421;-79
2022/03/10 07:47:05;;;;;;;11.45;8.00;;;4.90;74.20;;;;;;4977331;28;20026;-79
2022/03/10 07:49:32;;;;;;;9.95;7.65;;;4.90;74.20;;;;;;4977310;28;20038;-78
2022/03/10 07:51:59;;;;;;;10.55;7.88;;;5.00;74.30;;;;;;4993535;28;20065;-79
2022/03/10 07:54:25;;;;;;;10.60;7.70;;;4.90;74.20;;;;;;4993500;28;20149;-79
2022/03/10 07:56:51;;;;;;;10.18;8.30;;;5.00;74.30;;;;;;4974477;28;20038;-78
2022/03/10 07:59:17;;;;;;;11.27;8.23;;;5.00;74.30;;;;;;4974250;28;20030;-79
2022/03/10 08:01:43;;;;;;;10.27;8.02;;;5.00;74.30;;;;;;4977711;28;20019;-78
2022/03/10 08:04:09;;;;;;;10.60;8.13;;;5.00;74.30;;;;;;4974347;28;20033;-78
2022/03/10 08:06:35;;;;;;;11.38;8.57;;;5.00;74.30;;;;;;4961654;28;20054;-78
2022/03/10 08:09:02;;;;;;;10.60;7.95;;;5.00;74.30;;;;;;4977465;28;20038;-79
2022/03/10 08:11:28;;;;;;;11.90;8.70;;;5.00;74.30;;;;;;4977343;28;20553;-77
2022/03/10 08:13:54;;;;;;;10.85;8.45;;;5.00;74.30;;;;;;4993481;28;20026;-78
2022/03/10 08:16:20;;;;;;;10.80;7.80;;;5.00;74.30;;;;;;4992998;28;20447;-78
2022/03/10 08:18:49;;;;;;;11.85;8.65;;;5.00;74.30;;;;;;4945463;28;20177;-78
2022/03/10 08:21:15;;;;;;;10.95;8.15;;;5.10;74.40;;;;;;4953658;28;20085;-79
2022/03/10 08:23:41;;;;;;;10.10;7.65;;;5.10;74.40;;;;;;4992241;28;20069;-79
2022/03/10 08:26:08;;;;;;;10.38;7.78;;;5.10;74.40;;;;;;4992639;28;20081;-78
2022/03/10 08:28:34;;;;;;;11.07;8.25;;;5.10;74.40;;;;;;4985723;28;20062;-79
2022/03/10 08:31:02;;;;;;;11.18;8.45;;;5.10;74.40;;;;;;4975145;28;20105;-78
2022/03/10 08:33:28;;;;;;;10.55;7.97;;;5.10;74.40;;;;;;4976073;28;20043;-79
2022/03/10 08:35:54;;;;;;;12.18;9.10;;;5.20;74.50;;;;;;4974609;28;20099;-79
2022/03/10 08:38:19;;;;;;;12.20;9.23;;;5.20;74.50;;;;;;4995389;28;20098;-79
2022/03/10 08:40:45;;;;;;;10.82;8.10;;;5.20;74.50;;;;;;4977522;28;20358;-79
2022/03/10 08:43:12;;;;;;;11.05;8.13;;;5.20;74.50;;;;;;4977441;28;20471;-78
2022/03/10 08:45:39;;;;;;;12.30;9.25;;;5.20;74.50;;;;;;4977550;28;20394;-79
2022/03/10 08:48:05;;;;;;;11.15;7.90;;;5.30;74.50;;;;;;4993167;28;20177;-79
2022/03/10 08:50:31;;;;;;;12.80;9.05;;;5.30;74.50;;;;;;4973800;28;20027;-79
2022/03/10 08:52:57;;;;;;;13.07;8.77;;;5.30;74.50;;;;;;4973562;28;20038;-79
2022/03/10 08:55:23;;;;;;;12.25;9.32;;;5.30;74.50;;;;;;4970068;28;20076;-79
2022/03/10 08:57:50;;;;;;;12.52;9.18;;;5.30;74.50;;;;;;4969037;28;20497;-78
2022/03/10 09:00:18;;;;;;;11.90;8.38;;;5.30;74.50;;;;;;4998710;28;20091;-79
2022/03/10 09:02:44;;;;;;;11.43;9.00;;;5.40;74.60;;;;;;4993715;28;20014;-79
2022/03/10 09:05:11;;;;;;;11.57;8.55;;;5.40;74.60;;;;;;4992662;28;20026;-81
2022/03/10 09:07:37;;;;;;;11.90;8.98;;;5.40;74.70;;;;;;4977058;28;20069;-81
2022/03/10 09:10:04;;;;;;;10.80;8.40;;;5.50;74.70;;;;;;4976769;28;20041;-81
2022/03/10 09:12:30;;;;;;;12.25;9.40;;;5.50;74.70;;;;;;4961691;28;20031;-82
2022/03/10 09:14:56;;;;;;;11.85;8.93;;;5.60;74.70;;;;;;4960177;28;20143;-80
2022/03/10 09:17:22;;;;;;;12.10;8.85;;;5.60;74.80;;;;;;4993449;28;20037;-82
2022/03/10 09:19:49;;;;;;;12.77;9.55;;;5.70;74.70;;;;;;4976939;28;20042;-81
2022/03/10 09:22:15;;;;;;;13.35;9.50;;;5.70;75.30;;;;;;4978136;28;20034;-81
2022/03/10 09:24:42;;;;;;;11.40;8.40;;;5.70;74.70;;;;;;4980372;28;20025;-81
2022/03/10 09:27:09;;;;;;;12.18;9.02;;;5.80;74.70;;;;;;4999959;28;20048;-83
2022/03/10 09:29:35;;;;;;;13.52;9.63;;;5.80;74.70;;;;;;4999122;28;20099;-81
2022/03/10 09:32:01;;;;;;;13.35;9.95;;;5.90;74.70;;;;;;5014940;28;20057;-81
2022/03/10 09:34:27;;;;;;;11.65;9.18;;;6.00;74.70;;;;;;4999034;28;20084;-81
2022/03/10 09:36:52;;;;;;;12.52;9.90;;;6.00;74.70;;;;;;5016489;28;20442;-80
2022/03/10 09:39:18;;;;;;;13.30;9.77;;;6.10;74.70;;;;;;5017288;28;20029;-80
2022/03/10 09:41:44;;;;;;;11.32;9.02;;;6.20;74.70;;;;;;4999643;28;20524;-81
2022/03/10 09:44:19;;;;;;;13.57;9.73;;;6.20;74.70;;;;;;5015397;28;20072;-81
2022/03/10 09:46:47;;;;;;;13.57;9.57;;;6.30;74.70;;;;;;4996721;28;20037;-81
2022/03/10 09:49:13;;;;;;;12.30;9.35;;;6.40;74.70;;;;;;4996619;28;20022;-81
2022/03/10 09:51:40;;;;;;;11.20;8.90;;;6.40;74.70;;;;;;4998951;28;20029;-80
2022/03/10 09:54:05;;;;;;;13.38;10.00;;;6.50;74.70;;;;;;4994827;28;20038;-80
2022/03/10 09:56:36;;;;;;;11.63;9.00;;;6.60;74.70;;;;;;5013933;28;20025;-81
2022/03/10 09:59:06;;;;;;;13.60;9.85;;;6.70;74.70;;;;;;4998628;28;20051;-80
2022/03/10 10:01:32;;;;;;;12.98;9.45;;;6.80;74.70;;;;;;4998827;28;20052;-80
2022/03/10 10:03:58;;;;;;;12.27;9.48;;;6.80;74.70;;;;;;4998948;28;20462;-81
2022/03/10 10:06:23;;;;;;;12.05;8.90;;;7.00;74.80;;;;;;5016461;28;20419;-81
2022/03/10 10:08:57;;;;;;;14.13;10.25;;;7.00;74.80;;;;;;4997691;28;20037;-79
2022/03/10 10:11:30;;;;;;;12.80;10.05;;;7.20;74.90;;;;;;4993002;28;20064;-79
2022/03/10 10:13:57;;;;;;;11.70;9.13;;;7.20;74.80;;;;;;4996754;28;20025;-80
2022/03/10 10:16:23;;;;;;;12.98;9.90;;;7.30;74.80;;;;;;4983833;28;20037;-80
2022/03/10 10:18:56;;;;;;;12.93;10.32;;;7.40;74.90;;;;;;4973071;28;20037;-81
2022/03/10 10:21:23;;;;;;;14.10;10.57;;;7.50;75.00;;;;;;4999343;28;20136;-81
2022/03/10 10:23:52;;;;;;;14.50;10.15;;;7.60;75.10;;;;;;4994648;28;20108;-80
2022/03/10 10:26:20;;;;;;;16.58;10.40;;;7.70;75.20;;;;;;4994218;28;20124;-80
2022/03/10 10:28:50;;;;;;;13.98;10.50;;;7.80;75.20;;;;;;5019030;28;20037;-80
2022/03/10 10:31:21;;;;;;;14.10;10.20;;;7.90;75.40;;;;;;5002349;28;20034;-80
2022/03/10 10:34:00;;;;;;;15.18;10.68;;;8.00;75.40;;;;;;4995112;28;20026;-80
2022/03/10 10:36:28;;;;;;;14.32;10.05;;;8.10;75.50;;;;;;5023952;28;20117;-81
2022/03/10 10:39:07;;;;;;;13.63;10.63;;;8.20;75.40;;;;;;4998485;28;20053;-80
2022/03/10 10:41:33;;;;;;;13.32;10.57;;;8.40;75.60;;;;;;4986697;28;20053;-82
2022/03/10 10:44:00;;;;;;;13.65;10.90;;;8.50;75.60;;;;;;5013102;28;20128;-81
2022/03/10 10:46:34;;;;;;;13.25;10.90;;;8.60;75.70;;;;;;4980561;28;20034;-82
2022/03/10 10:49:11;;;;;;;14.88;11.18;;;8.70;75.80;;;;;;4965274;28;20060;-80
2022/03/10 10:51:43;;;;;;;14.48;11.07;;;8.80;75.90;;;;;;5022938;28;20052;-80
2022/03/10 10:54:20;;;;;;;13.98;11.30;;;8.90;75.90;;;;;;4989162;28;20088;-80
2022/03/10 10:56:51;;;;;;;14.65;11.20;;;9.00;75.90;;;;;;4997991;28;20029;-81
2022/03/10 10:59:31;;;;;;;13.77;10.57;;;9.20;76.00;;;;;;5013316;28;20033;-82
2022/03/10 11:02:17;;;;;;;12.88;10.25;;;9.30;76.20;;;;;;4996998;28;20029;-81
2022/03/10 11:04:46;;;;;;;13.82;10.70;;;9.40;76.20;;;;;;4997065;28;20497;-81
2022/03/10 11:07:12;;;;;;;12.98;9.95;;;9.50;76.10;;;;;;5006591;28;20037;-81
2022/03/10 11:09:43;;;;;;;14.40;10.68;;;9.60;76.00;;;;;;5002902;28;20068;-81
2022/03/10 11:12:11;;;;;;;12.10;9.95;;;9.70;76.10;;;;;;4999762;28;20025;-81
2022/03/10 11:14:37;;;;;;;14.70;10.65;;;9.80;76.10;;;;;;4982226;28;20041;-78
2022/03/10 11:17:04;;;;;;;13.35;10.27;;;9.90;76.10;;;;;;5009452;28;20072;-77
2022/03/10 11:19:33;;;;;;;13.90;11.00;;;10.00;76.10;;;;;;4989016;28;20022;-78
2022/03/10 11:22:26;;;;;;;14.45;11.00;;;10.10;76.10;;;;;;5008187;28;20112;-84
2022/03/10 11:25:09;;;;;;;13.80;10.10;;;10.20;76.20;;;;;;5013322;28;20038;-79
2022/03/10 11:27:44;;;;;;;13.15;10.65;;;10.40;76.30;;;;;;5003345;28;20516;-80
2022/03/10 11:30:10;;;;;;;13.02;10.52;;;10.40;76.30;;;;;;5020915;28;20121;-79
2022/03/10 11:32:36;;;;;;;14.70;11.57;;;10.60;76.40;;;;;;4996586;28;20812;-80
2022/03/10 11:35:04;;;;;;;14.75;11.45;;;10.60;76.30;;;;;;4980896;28;20030;-79
2022/03/10 11:37:44;;;;;;;14.23;10.98;;;10.70;76.50;;;;;;4996776;28;20057;-79
2022/03/10 11:40:17;;;;;;;13.73;10.85;;;10.80;76.70;;;;;;5004516;28;20044;-79
2022/03/10 11:42:43;;;;;;;14.02;11.45;;;10.90;76.60;;;;;;5004869;28;20381;-79
2022/03/10 11:45:18;;;;;;;14.13;11.30;;;11.00;76.60;;;;;;4993926;28;20030;-79
2022/03/10 11:47:45;;;;;;;12.52;10.40;;;11.10;76.90;;;;;;4997139;28;20022;-78
2022/03/10 11:50:23;;;;;;;13.90;11.23;;;11.10;76.80;;;;;;4996544;28;20026;-78
2022/03/10 11:53:00;;;;;;;13.18;10.27;;;11.20;77.00;;;;;;5012428;28;20046;-78
2022/03/10 11:55:48;;;;;;;12.40;10.18;;;11.30;77.00;;;;;;4996233;28;20025;-78
2022/03/10 11:58:14;;;;;;;12.68;9.77;;;11.40;77.10;;;;;;4999948;28;20033;-77
2022/03/10 12:00:48;;;;;;;12.82;10.65;;;11.40;76.90;;;;;;4999475;28;20021;-77
2022/03/10 12:03:27;;;;;;;14.23;11.50;;;11.50;77.20;;;;;;5016149;28;20021;-78
2022/03/10 12:05:58;;;;;;;14.57;11.25;;;11.60;77.30;;;;;;5004749;28;20028;-78
2022/03/10 12:08:27;;;;;;;14.65;11.48;;;11.70;77.30;;;;;;5017295;28;20029;-78
2022/03/10 12:10:53;;;;;;;13.35;10.25;;;11.80;77.40;;;;;;5025461;28;20018;-77
2022/03/10 12:13:25;;;;;;;14.50;11.38;;;11.80;77.30;;;;;;4979639;28;20042;-78
2022/03/10 12:15:51;;;;;;;13.98;10.98;;;11.90;77.40;;;;;;5015648;28;20100;-77
2022/03/10 12:18:24;;;;;;;15.05;12.00;;;11.90;77.30;;;;;;4993899;28;20033;-78
2022/03/10 12:20:53;;;;;;;13.00;10.38;;;12.00;77.40;;;;;;5021234;28;20037;-78
2022/03/10 12:23:22;;;;;;;14.05;11.60;;;12.10;77.40;;;;;;5015039;28;20052;-78
2022/03/10 12:26:05;;;;;;;12.75;10.30;;;12.10;77.30;;;;;;4983331;28;20038;-78
2022/03/10 12:28:37;;;;;;;13.27;10.02;;;12.20;77.40;;;;;;4997288;28;20466;-77
2022/03/10 12:31:14;;;;;;;14.60;11.23;;;12.20;77.30;;;;;;5032792;28;20033;-77
2022/03/10 12:33:54;;;;;;;14.35;11.25;;;12.30;77.40;;;;;;5032653;28;20033;-78
2022/03/10 12:36:43;;;;;;;13.15;10.25;;;12.40;77.50;;;;;;4993783;28;20041;-79
2022/03/10 12:39:13;;;;;;;12.88;9.98;;;12.40;77.50;;;;;;5014752;28;20030;-77
2022/03/10 12:41:41;;;;;;;12.43;10.02;;;12.50;77.40;;;;;;4997754;28;20025;-76
2022/03/10 12:44:12;;;;;;;14.15;11.02;;;12.60;77.40;;;;;;4998289;28;20119;-77
2022/03/10 12:46:41;;;;;;;13.82;10.68;;;12.60;77.40;;;;;;4997755;28;20034;-78
2022/03/10 12:49:06;;;;;;;14.57;11.25;;;12.70;77.30;;;;;;4998583;28;20378;-78
2022/03/10 12:51:39;;;;;;;13.02;10.68;;;12.80;77.40;;;;;;5014893;28;20029;-78
2022/03/10 12:54:07;;;;;;;13.77;11.18;;;12.80;78.00;;;;;;5032809;28;20025;-78